createdAt,value
2022-11-21T00:01:27.218Z,37.72
2022-11-21T00:03:55.572Z,39.58
2022-11-21T00:06:24.345Z,41.97
2022-11-21T00:08:53.028Z,40.67
2022-11-21T00:11:21.308Z,40.92
2022-11-21T00:13:49.561Z,41.63
2022-11-21T00:16:19.377Z,38.88
2022-11-21T00:18:47.651Z,39.25
2022-11-21T00:21:17.241Z,40.47
2022-11-21T00:23:46.680Z,39.75
2022-11-21T00:26:17.395Z,40.92
2022-11-21T00:28:46.294Z,44.35
2022-11-21T00:31:22.062Z,39.10
2022-11-21T00:33:50.394Z,40.75
2022-11-21T00:36:18.811Z,43.55
2022-11-21T00:38:47.105Z,41.90
2022-11-21T00:41:15.489Z,43.03
2022-11-21T00:43:44.015Z,42.75
2022-11-21T00:46:12.411Z,45.08
2022-11-21T00:48:42.347Z,42.22
2022-11-21T00:51:10.697Z,43.85
2022-11-21T00:53:38.978Z,42.33
2022-11-21T00:56:07.351Z,39.97
2022-11-21T00:58:35.594Z,42.97
2022-11-21T01:01:06.363Z,40.25
2022-11-21T01:03:35.428Z,43.58
2022-11-21T01:06:07.748Z,41.92
2022-11-21T01:08:37.356Z,42.20
2022-11-21T01:11:06.070Z,43.65
2022-11-21T01:13:34.847Z,44.30
2022-11-21T01:16:07.573Z,42.88
2022-11-21T01:18:36.442Z,44.92
2022-11-21T01:21:08.203Z,42.92
2022-11-21T01:23:36.617Z,43.38
2022-11-21T01:26:06.211Z,43.88
2022-11-21T01:28:34.795Z,44.38
2022-11-21T01:31:07.623Z,42.88
2022-11-21T01:33:36.557Z,44.22
2022-11-21T01:36:11.585Z,43.65
2022-11-21T01:38:40.233Z,43.83
2022-11-21T01:41:08.747Z,44.95
2022-11-21T01:43:37.561Z,43.00
2022-11-21T01:46:13.184Z,42.83
2022-11-21T01:48:47.431Z,41.58
2022-11-21T01:51:25.649Z,42.42
2022-11-21T01:53:58.903Z,41.47
2022-11-21T01:56:28.193Z,42.70
2022-11-21T01:59:00.637Z,42.53
2022-11-21T02:01:29.887Z,40.30
2022-11-21T02:03:59.691Z,44.60
2022-11-21T02:06:29.549Z,44.03
2022-11-21T02:08:58.962Z,45.63
2022-11-21T02:11:32.172Z,45.97
2022-11-21T02:14:01.378Z,45.10
2022-11-21T02:16:30.031Z,43.05
2022-11-21T02:18:58.457Z,42.97
2022-11-21T02:21:39.789Z,41.72
2022-11-21T02:24:15.747Z,43.55
2022-11-21T02:26:49.932Z,42.38
2022-11-21T02:29:18.652Z,44.63
2022-11-21T02:31:47.460Z,41.70
2022-11-21T02:34:15.916Z,42.95
2022-11-21T02:36:47.661Z,45.05
2022-11-21T02:39:20.862Z,41.03
2022-11-21T02:42:02.364Z,43.63
2022-11-21T02:44:38.537Z,39.97
2022-11-21T02:47:06.890Z,42.15
2022-11-21T02:49:42.101Z,44.25
2022-11-21T02:52:10.430Z,40.33
2022-11-21T02:54:38.780Z,41.58
2022-11-21T02:57:08.598Z,41.60
2022-11-21T02:59:36.990Z,41.67
2022-11-21T03:02:05.346Z,40.97
2022-11-21T03:04:33.681Z,39.45
2022-11-21T03:07:02.102Z,44.13
2022-11-21T03:09:30.432Z,42.17
2022-11-21T03:11:58.657Z,40.35
2022-11-21T03:14:28.711Z,40.80
2022-11-21T03:16:57.204Z,41.35
2022-11-21T03:19:25.721Z,42.67
2022-11-21T03:21:54.078Z,39.03
2022-11-21T03:24:22.506Z,42.65
2022-11-21T03:26:51.008Z,43.10
2022-11-21T03:29:20.672Z,39.88
2022-11-21T03:31:50.808Z,38.17
2022-11-21T03:34:19.108Z,41.03
2022-11-21T03:36:50.043Z,42.22
2022-11-21T03:39:20.670Z,40.33
2022-11-21T03:41:49.372Z,40.85
2022-11-21T03:44:20.591Z,42.13
2022-11-21T03:46:50.971Z,41.85
2022-11-21T03:49:19.465Z,41.92
2022-11-21T03:51:50.317Z,41.58
2022-11-21T03:54:19.270Z,41.17
2022-11-21T03:56:48.310Z,38.70
2022-11-21T03:59:17.231Z,42.22
2022-11-21T04:01:53.151Z,43.45
2022-11-21T04:04:22.714Z,41.55
2022-11-21T04:06:52.279Z,40.20
2022-11-21T04:09:21.436Z,42.58
2022-11-21T04:11:55.459Z,41.35
2022-11-21T04:14:41.938Z,42.58
2022-11-21T04:17:35.399Z,39.75
2022-11-21T04:20:17.184Z,39.92
2022-11-21T04:22:59.351Z,38.42
2022-11-21T04:25:29.095Z,42.15
2022-11-21T04:34:24.753Z,39.83
2022-11-21T04:36:58.965Z,39.03
2022-11-21T04:43:42.837Z,38.90
2022-11-21T04:46:18.316Z,39.50
2022-11-21T04:49:22.736Z,42.00
2022-11-21T04:52:58.669Z,38.33
2022-11-21T04:56:11.005Z,39.05
2022-11-21T05:35:51.961Z,39.97
2022-11-21T05:56:46.648Z,39.30
2022-11-21T06:08:32.813Z,37.92
2022-11-21T06:25:07.856Z,36.70
2022-11-21T06:54:38.701Z,36.42
2022-11-21T07:01:43.482Z,37.15
2022-11-21T07:29:00.146Z,42.50
2022-11-21T07:36:01.695Z,44.17
2022-11-21T07:38:56.333Z,45.30
2022-11-21T07:41:47.153Z,43.10
2022-11-21T07:44:20.995Z,41.88
2022-11-21T07:46:49.307Z,43.03
2022-11-21T07:49:17.824Z,44.10
2022-11-21T07:51:46.514Z,41.05
2022-11-21T07:54:14.804Z,39.80
2022-11-21T07:56:43.241Z,44.17
2022-11-21T07:59:13.186Z,45.38
2022-11-21T08:01:45.993Z,43.15
2022-11-21T08:04:19.115Z,41.10
2022-11-21T08:06:48.988Z,41.40
2022-11-21T08:09:17.334Z,43.58
2022-11-21T08:11:52.892Z,42.13
2022-11-21T08:14:21.407Z,38.67
2022-11-21T08:16:53.268Z,40.10
2022-11-21T08:19:21.614Z,41.83
2022-11-21T08:21:49.860Z,38.92
2022-11-21T08:24:18.240Z,39.88
2022-11-21T08:26:46.843Z,41.63
2022-11-21T08:29:16.642Z,38.42
2022-11-21T08:31:45.769Z,41.28
2022-11-21T08:34:15.515Z,37.65
2022-11-21T08:36:43.838Z,38.50
2022-11-21T08:39:12.193Z,37.60
2022-11-21T08:41:57.938Z,39.65
2022-11-21T08:44:28.346Z,37.08
2022-11-21T08:46:57.131Z,36.03
2022-11-21T08:49:27.227Z,37.78
2022-11-21T08:51:55.926Z,38.30
2022-11-21T08:54:25.699Z,34.63
2022-11-21T08:56:55.088Z,36.97
2022-11-21T08:59:23.449Z,31.55
2022-11-21T09:01:52.968Z,34.88
2022-11-21T09:04:21.532Z,33.28
2022-11-21T09:06:51.318Z,33.58
2022-11-21T09:09:25.106Z,32.75
2022-11-21T09:11:54.159Z,34.22
2022-11-21T09:14:40.517Z,32.13
2022-11-21T09:17:30.479Z,30.58
2022-11-21T09:20:23.639Z,28.75
2022-11-21T09:22:59.129Z,28.52
2022-11-21T09:25:27.569Z,27.83
2022-11-21T09:27:59.905Z,28.63
2022-11-21T09:30:28.215Z,28.88
2022-11-21T09:33:00.572Z,27.75
2022-11-21T09:35:29.291Z,26.05
2022-11-21T09:38:06.678Z,27.95
2022-11-21T09:40:47.633Z,25.42
2022-11-21T09:43:27.646Z,24.85
2022-11-21T09:46:04.177Z,25.70
2022-11-21T09:48:35.836Z,25.33
2022-11-21T09:51:08.793Z,26.83
2022-11-21T09:53:41.338Z,32.50
2022-11-21T09:56:15.116Z,35.28
2022-11-21T09:58:47.178Z,36.15
2022-11-21T10:01:17.128Z,36.33
2022-11-21T10:03:48.000Z,35.10
2022-11-21T10:06:22.067Z,34.05
2022-11-21T10:08:58.860Z,31.98
2022-11-21T10:11:35.960Z,32.55
2022-11-21T10:14:20.549Z,29.25
2022-11-21T10:16:54.940Z,29.38
2022-11-21T10:19:38.958Z,28.75
2022-11-21T10:22:39.827Z,31.05
2022-11-21T10:25:15.266Z,30.10
2022-11-21T10:27:50.244Z,29.45
2022-11-21T10:30:20.711Z,31.23
2022-11-21T10:32:51.925Z,31.50
2022-11-21T10:35:23.828Z,33.28
2022-11-21T10:37:54.378Z,33.30
2022-11-21T10:40:38.341Z,31.42
2022-11-21T10:43:28.978Z,33.15
2022-11-21T10:45:59.659Z,32.72
2022-11-21T10:48:28.104Z,31.83
2022-11-21T10:51:11.951Z,31.65
2022-11-21T10:54:04.652Z,32.35
2022-11-21T10:56:38.240Z,30.02
2022-11-21T10:59:23.428Z,30.60
2022-11-21T11:02:25.922Z,29.13
2022-11-21T11:05:20.639Z,30.40
2022-11-21T11:08:03.416Z,29.13
2022-11-21T11:10:32.982Z,32.13
2022-11-21T11:16:08.795Z,28.48
2022-11-21T11:18:49.334Z,31.05
2022-11-21T11:21:19.997Z,28.50
2022-11-21T11:23:50.272Z,28.55
2022-11-21T11:26:56.336Z,29.80
2022-11-21T11:29:27.768Z,25.90
2022-11-21T11:32:01.893Z,27.08
2022-11-21T11:34:58.594Z,26.98
2022-11-21T11:37:40.294Z,24.70
2022-11-21T11:40:20.277Z,26.08
2022-11-21T11:43:25.128Z,27.33
2022-11-21T11:46:41.944Z,24.08
2022-11-21T11:49:21.102Z,24.63
2022-11-21T11:51:55.609Z,24.45
2022-11-21T11:54:28.349Z,24.40
2022-11-21T11:57:01.222Z,25.63
2022-11-21T12:00:01.298Z,26.05
2022-11-21T12:02:49.335Z,25.38
2022-11-21T12:09:30.394Z,25.67
2022-11-21T12:12:36.559Z,25.35
2022-11-21T12:16:11.955Z,25.42
2022-11-21T12:19:52.826Z,25.83
2022-11-21T12:27:15.137Z,25.23
2022-11-21T12:30:29.901Z,25.38
2022-11-21T12:33:09.282Z,25.67
2022-11-21T12:36:22.000Z,25.88
2022-11-21T12:39:42.033Z,25.88
2022-11-21T12:43:01.134Z,25.83
2022-11-21T12:46:05.415Z,25.65
2022-11-21T12:49:29.326Z,26.83
2022-11-21T12:52:56.504Z,26.35
2022-11-21T12:55:40.160Z,25.23
2022-11-21T12:58:47.115Z,26.15
2022-11-21T13:02:42.644Z,28.38
2022-11-21T13:04:56.690Z,26.58
2022-11-21T13:07:36.945Z,24.83
2022-11-21T13:10:46.722Z,24.98
2022-11-21T13:13:36.218Z,24.83
2022-11-21T13:16:14.490Z,26.60
2022-11-21T13:18:53.838Z,24.88
2022-11-21T13:22:14.463Z,26.42
2022-11-21T13:29:46.557Z,24.35
2022-11-21T13:32:39.419Z,23.95
2022-11-21T13:36:15.447Z,23.45
2022-11-21T13:42:35.275Z,23.60
2022-11-21T13:45:40.581Z,22.85
2022-11-21T13:48:52.245Z,24.23
2022-11-21T13:51:50.642Z,23.70
2022-11-21T13:54:43.062Z,24.05
2022-11-21T13:57:30.904Z,25.63
2022-11-21T14:00:22.940Z,27.05
2022-11-21T14:03:41.247Z,24.55
2022-11-21T14:06:32.525Z,26.17
2022-11-21T14:09:28.176Z,24.75
2022-11-21T14:11:59.518Z,27.00
2022-11-21T14:14:44.753Z,28.10
2022-11-21T14:17:33.422Z,27.13
2022-11-21T14:20:14.907Z,28.63
2022-11-21T14:22:47.624Z,26.52
2022-11-21T14:25:19.667Z,28.45
2022-11-21T14:27:50.915Z,29.42
2022-11-21T14:30:34.441Z,28.55
2022-11-21T14:33:25.819Z,27.42
2022-11-21T14:36:06.661Z,26.67
2022-11-21T14:38:42.177Z,27.60
2022-11-21T14:41:31.546Z,28.70
2022-11-21T14:44:19.929Z,26.75
2022-11-21T14:46:52.490Z,29.30
2022-11-21T14:49:25.617Z,27.35
2022-11-21T14:52:25.663Z,29.95
2022-11-21T14:57:54.578Z,27.27
2022-11-21T15:00:57.273Z,27.45
2022-11-21T15:03:26.526Z,28.30
2022-11-21T15:06:06.828Z,29.40
2022-11-21T15:11:59.107Z,31.17
2022-11-21T15:15:07.909Z,31.42
2022-11-21T15:21:32.312Z,30.77
2022-11-21T15:28:39.635Z,35.25
2022-11-21T15:31:20.310Z,36.15
2022-11-21T15:34:34.714Z,36.33
2022-11-21T15:37:44.406Z,38.00
2022-11-21T15:41:22.777Z,37.58
2022-11-21T15:44:22.425Z,40.63
2022-11-21T15:47:26.778Z,39.08
2022-11-21T15:50:01.231Z,40.60
2022-11-21T15:52:31.121Z,38.33
2022-11-21T15:54:59.941Z,39.45
2022-11-21T15:57:32.273Z,39.92
2022-11-21T16:00:04.443Z,42.78
2022-11-21T16:03:03.850Z,40.70
2022-11-21T16:05:39.498Z,38.78
2022-11-21T16:08:41.706Z,40.67
2022-11-21T16:11:25.758Z,41.55
2022-11-21T16:14:20.025Z,39.42
2022-11-21T16:16:49.920Z,41.90
2022-11-21T16:19:21.782Z,39.28
2022-11-21T16:22:09.999Z,38.60
2022-11-21T16:24:47.497Z,38.05
2022-11-21T16:27:16.717Z,38.47
2022-11-21T16:29:47.675Z,36.97
2022-11-21T16:32:24.036Z,39.42
2022-11-21T16:35:16.694Z,35.75
2022-11-21T16:38:00.450Z,37.80
2022-11-21T16:40:34.184Z,38.97
2022-11-21T16:43:18.994Z,37.40
2022-11-21T16:45:49.416Z,36.88
2022-11-21T16:48:18.796Z,35.50
2022-11-21T16:50:47.822Z,36.90
2022-11-21T16:53:17.609Z,35.90
2022-11-21T16:55:49.285Z,39.22
2022-11-21T16:58:18.041Z,36.65
2022-11-21T17:01:06.235Z,38.25
2022-11-21T17:04:02.037Z,37.03
2022-11-21T17:06:33.975Z,38.88
2022-11-21T17:09:07.857Z,36.85
2022-11-21T17:14:37.948Z,36.92
2022-11-21T17:17:09.093Z,35.45
2022-11-21T17:19:39.219Z,36.78
2022-11-21T17:22:32.610Z,39.55
2022-11-21T17:25:01.113Z,37.53
2022-11-21T17:27:40.477Z,36.95
2022-11-21T17:30:11.022Z,36.72
2022-11-21T17:32:39.429Z,37.05
2022-11-21T17:35:11.431Z,35.58
2022-11-21T17:37:41.364Z,36.80
2022-11-21T17:40:12.188Z,38.38
2022-11-21T17:42:43.453Z,36.97
2022-11-21T17:45:14.757Z,35.85
2022-11-21T17:47:44.196Z,36.38
2022-11-21T17:50:16.940Z,39.15
2022-11-21T17:52:47.040Z,36.25
2022-11-21T17:55:16.074Z,37.33
2022-11-21T17:57:44.728Z,37.35
2022-11-21T18:00:15.789Z,35.08
2022-11-21T18:02:44.332Z,35.08
2022-11-21T18:05:12.860Z,35.58
2022-11-21T18:07:42.735Z,33.55
2022-11-21T18:10:47.683Z,34.80
2022-11-21T18:13:16.498Z,33.92
2022-11-21T18:15:45.274Z,35.50
2022-11-21T18:18:16.857Z,33.30
2022-11-21T18:20:45.349Z,34.00
2022-11-21T18:23:15.170Z,31.38
2022-11-21T18:25:43.625Z,35.80
2022-11-21T18:28:12.257Z,33.67
2022-11-21T18:30:41.044Z,34.03
2022-11-21T18:33:10.163Z,34.58
2022-11-21T18:35:40.760Z,33.80
2022-11-21T18:38:09.202Z,34.75
2022-11-21T18:40:39.996Z,34.15
2022-11-21T18:43:08.925Z,34.28
2022-11-21T18:45:37.391Z,33.83
2022-11-21T18:48:06.526Z,32.90
2022-11-21T18:50:35.813Z,31.73
2022-11-21T18:53:04.133Z,34.50
2022-11-21T18:55:34.196Z,36.90
2022-11-21T18:58:04.052Z,33.55
2022-11-21T19:00:32.598Z,35.05
2022-11-21T19:03:00.891Z,37.75
2022-11-21T19:05:29.314Z,39.63
2022-11-21T19:07:57.932Z,36.47
2022-11-21T19:10:42.688Z,34.53
2022-11-21T19:13:13.452Z,33.90
2022-11-21T19:15:42.991Z,33.90
2022-11-21T19:18:12.237Z,32.55
2022-11-21T19:20:42.292Z,30.35
2022-11-21T19:23:10.709Z,33.75
2022-11-21T19:25:39.110Z,31.95
2022-11-21T19:28:07.753Z,32.80
2022-11-21T19:30:37.628Z,30.20
2022-11-21T19:33:14.814Z,32.10
2022-11-21T19:35:44.417Z,29.75
2022-11-21T19:38:13.088Z,33.20
2022-11-21T19:40:55.492Z,30.30
2022-11-21T19:43:24.489Z,32.60
2022-11-21T19:46:03.474Z,31.48
2022-11-21T19:48:32.349Z,31.25
2022-11-21T19:51:01.985Z,31.38
2022-11-21T19:53:35.143Z,31.95
2022-11-21T19:56:14.064Z,31.00
2022-11-21T19:58:43.698Z,32.13
2022-11-21T20:01:15.811Z,32.15
2022-11-21T20:03:46.170Z,33.63
2022-11-21T20:06:17.302Z,33.00
2022-11-21T20:08:49.347Z,31.08
2022-11-21T20:11:17.969Z,33.50
2022-11-21T20:13:47.296Z,32.40
2022-11-21T20:16:22.554Z,34.50
2022-11-21T20:18:52.012Z,33.67
2022-11-21T20:21:21.437Z,33.65
2022-11-21T20:23:50.833Z,36.17
2022-11-21T20:26:21.070Z,35.30
2022-11-21T20:28:51.398Z,35.78
2022-11-21T20:31:38.450Z,35.35
2022-11-21T20:34:10.302Z,34.85
2022-11-21T20:36:54.268Z,35.38
2022-11-21T20:39:22.737Z,35.60
2022-11-21T20:41:53.515Z,35.00
2022-11-21T20:47:12.737Z,35.30
2022-11-21T20:49:53.305Z,33.42
2022-11-21T20:55:10.965Z,30.45
2022-11-21T20:57:46.890Z,34.45
2022-11-21T21:00:20.520Z,31.10
2022-11-21T21:02:50.592Z,32.22
2022-11-21T21:05:35.819Z,30.65
2022-11-21T21:08:14.024Z,31.13
2022-11-21T21:11:04.651Z,30.88
2022-11-21T21:13:36.104Z,31.40
2022-11-21T21:16:08.246Z,33.47
2022-11-21T21:19:06.409Z,33.63
2022-11-21T21:22:05.161Z,32.83
2022-11-21T21:24:43.753Z,31.88
2022-11-21T21:27:19.735Z,32.58
2022-11-21T21:29:56.876Z,32.72
2022-11-21T21:32:33.774Z,34.10
2022-11-21T21:35:02.606Z,32.95
2022-11-21T21:37:48.687Z,33.25
2022-11-21T21:40:19.438Z,32.45
2022-11-21T21:42:47.949Z,34.38
2022-11-21T21:45:16.621Z,32.95
2022-11-21T21:47:45.292Z,36.22
2022-11-21T21:50:15.968Z,35.15
2022-11-21T21:52:44.660Z,32.90
2022-11-21T21:55:13.348Z,34.25
2022-11-21T21:57:47.203Z,34.78
2022-11-21T22:00:27.120Z,33.33
2022-11-21T22:02:55.702Z,32.80
2022-11-21T22:05:24.549Z,35.10
2022-11-21T22:07:53.442Z,35.53
2022-11-21T22:10:22.026Z,32.95
2022-11-21T22:12:52.046Z,34.42
2022-11-21T22:15:20.718Z,35.83
2022-11-21T22:17:49.289Z,33.55
2022-11-21T22:20:19.918Z,32.35
2022-11-21T22:22:48.398Z,32.03
2022-11-21T22:25:16.896Z,33.45
2022-11-21T22:27:45.511Z,34.38
2022-11-21T22:30:15.761Z,33.97
2022-11-21T22:32:48.766Z,33.95
2022-11-21T22:35:17.358Z,30.88
2022-11-21T22:37:51.465Z,31.33
2022-11-21T22:40:20.247Z,32.15
2022-11-21T22:42:51.051Z,33.55
2022-11-21T22:45:35.801Z,33.58
2022-11-21T22:48:04.677Z,33.17
2022-11-21T22:50:36.802Z,30.92
2022-11-21T22:53:10.772Z,31.65
2022-11-21T22:55:39.246Z,31.02
2022-11-21T22:58:08.096Z,31.90
2022-11-21T23:00:38.149Z,30.50
2022-11-21T23:03:06.578Z,32.22
2022-11-21T23:05:34.964Z,32.55
2022-11-21T23:08:03.335Z,31.48
2022-11-21T23:10:32.119Z,34.58
2022-11-21T23:13:00.965Z,32.78
2022-11-21T23:15:29.463Z,31.00
2022-11-21T23:18:15.180Z,31.65
2022-11-21T23:20:44.746Z,31.40
2022-11-21T23:23:13.124Z,32.30
2022-11-21T23:25:41.493Z,31.83
2022-11-21T23:28:10.286Z,31.40
2022-11-21T23:30:38.992Z,34.35
2022-11-21T23:33:07.523Z,30.63
2022-11-21T23:35:37.678Z,32.15
2022-11-21T23:38:06.504Z,29.52
2022-11-21T23:40:35.164Z,31.92
2022-11-21T23:43:05.661Z,32.22
2022-11-21T23:45:34.756Z,31.73
2022-11-21T23:48:03.644Z,30.35
2022-11-21T23:50:32.895Z,32.58
2022-11-21T23:53:02.810Z,31.35
2022-11-21T23:55:31.357Z,29.55
2022-11-21T23:58:00.517Z,31.65
